Aérodrome :
LOGIN :

S'inscrire | Disclaimer

   EN    FR    IT 

 










Légende :    VFR   VFR Marginal   IFR   IFR Intensif   IFR Très Intensif
Visi : 
Plafond : 
>= 8 km
>= 3000ft
5 à 8 km
1000 à 3000 ft
1500m à 5 km
500 à 1000 ft
800 à 1500m
200 à 500 ft
< 800m
< 200 ft
Symboles :   Orages  Brouillard  Fortes neiges  Fortes précipitations  Vent > 20 kt
SIGMETs :   Divers  Orages  Givrage  Turbulence  Onde Orograph.  Cendres Volcan.







- Altitude de l'aérodrome : 390 ft
- Code IATA : NQY
- Voir les cartes d'approche


EGHQ - Newquay

DERNIER METAR :
  • 211620Z 25023KT 2000 -RADZ BR OVC002 10/10 Q1010

METARs EXPIRÉS :
  • 211550Z 25026G36KT 2000 RADZ BR OVC002 10/10 Q1010
  • 211520Z 25025KT 0500 R30/0900 RADZ FG OVC002 10/10 Q1011
  • 211450Z 25024KT 0500 R30/0700 -RADZ FG OVC002 10/10 Q1011
  • 211420Z 25023KT 0600 R30/0700 -DZ FG OVC002 10/10 Q1011
  • 211350Z 25022KT 0450 R30/0800 -DZ FG OVC002 10/10 Q1011

TAF TAF EGHQ
Valide du 21 à 15h jusqu'au 21 à 22h UTC


211411Z 2115/2122 26022G32KT 0300 -DZ FG BKN001
TEMPO 2115/2119 2000 RADZ BKN002
BECMG 2119/2122 9999 NSW SCT008
Pas de NOTAMs connus pour ce terrain.
1 SIGMET publié pour la FIR London (EGTT) :
 
Givrage fort
EGTT SIGMET 05 VALID 211500/211900 EGRR
EGTT LONDON FIR SEV ICE FCST WI N5500 W00100 - N5500 E00005 - N5358 E00059 - N5305 W00028 - N5500 W00233 - N5500 W00100 FL020/140 MOV NE 20KT NC=



MET'MAP, la Météo Aéronautique d'un coup d'oeil ! - Copyright ORBIFLY Décembre 2007 - Disclaimer

ORBIFLY MET'MAP TEAM :

Programmation & Développement : Alexandra Zaïnal
Conception & Développement : Baudouin d'Aumeries
Co-Programmation & Développement : Marc-Olivier Méhu
Soutien technique & logistique : Manuel Goepfert

Contact : metmap@orbifly.com




SOURCES & CREDITS :

   NOAA